Terminal Aerodrome Forecast
Issued by NWS

Home | Current Version | Previous Version | Text Only | Print | Product List | Glossary On
Versions: 1 2 3 4 5 6 7 8 9 10 11 12 13 14 15 16 17 18
000
FTUS44 KBMX 272324
TAFMGM
TAF
KMGM 272324Z 2800/2824 36005KT P6SM OVC250
     FM280500 06006KT P6SM OVC250
     FM281500 07010KT 6SM -RA BR BKN050 OVC250
     FM281800 09010KT 3SM -RA BR OVC030=

USA.gov is the U.S. government's official web portal to all federal, state and local government web resources and services.